sensor_id;sensor_type;location;lat;lon;timestamp;P1;durP1;ratioP1;P2;durP2;ratioP2
1829;SDS011;914;48.118;11.600;2023-05-08T00:00:21;8.63;;;6.93;;
1829;SDS011;914;48.118;11.600;2023-05-08T00:02:47;8.53;;;6.67;;
1829;SDS011;914;48.118;11.600;2023-05-08T00:05:13;7.53;;;6.87;;
1829;SDS011;914;48.118;11.600;2023-05-08T00:07:39;10.07;;;7.00;;
1829;SDS011;914;48.118;11.600;2023-05-08T00:10:05;7.17;;;6.47;;
1829;SDS011;914;48.118;11.600;2023-05-08T00:12:32;7.60;;;6.83;;
1829;SDS011;914;48.118;11.600;2023-05-08T00:14:58;7.40;;;6.70;;
1829;SDS011;914;48.118;11.600;2023-05-08T00:17:24;7.60;;;6.90;;
1829;SDS011;914;48.118;11.600;2023-05-08T00:19:49;7.37;;;6.67;;
1829;SDS011;914;48.118;11.600;2023-05-08T00:22:15;9.20;;;7.85;;
1829;SDS011;914;48.118;11.600;2023-05-08T00:24:40;7.40;;;6.73;;
1829;SDS011;914;48.118;11.600;2023-05-08T00:27:06;8.10;;;7.30;;
1829;SDS011;914;48.118;11.600;2023-05-08T00:29:34;7.00;;;6.38;;
1829;SDS011;914;48.118;11.600;2023-05-08T00:32:00;8.45;;;7.65;;
1829;SDS011;914;48.118;11.600;2023-05-08T00:34:26;8.73;;;7.63;;
1829;SDS011;914;48.118;11.600;2023-05-08T00:36:52;8.47;;;7.63;;
1829;SDS011;914;48.118;11.600;2023-05-08T00:39:17;8.85;;;7.95;;
1829;SDS011;914;48.118;11.600;2023-05-08T00:41:43;8.45;;;7.65;;
1829;SDS011;914;48.118;11.600;2023-05-08T00:44:09;9.43;;;8.37;;
1829;SDS011;914;48.118;11.600;2023-05-08T00:46:34;9.18;;;8.13;;
1829;SDS011;914;48.118;11.600;2023-05-08T00:49:01;9.93;;;8.47;;
1829;SDS011;914;48.118;11.600;2023-05-08T00:51:28;10.70;;;8.57;;
1829;SDS011;914;48.118;11.600;2023-05-08T00:53:56;9.67;;;7.87;;
1829;SDS011;914;48.118;11.600;2023-05-08T00:56:22;9.73;;;8.73;;
1829;SDS011;914;48.118;11.600;2023-05-08T00:58:49;9.23;;;8.33;;
1829;SDS011;914;48.118;11.600;2023-05-08T01:01:15;9.43;;;8.52;;
1829;SDS011;914;48.118;11.600;2023-05-08T01:03:41;10.60;;;8.97;;
1829;SDS011;914;48.118;11.600;2023-05-08T01:06:07;10.33;;;8.23;;
1829;SDS011;914;48.118;11.600;2023-05-08T01:08:33;9.27;;;8.37;;
1829;SDS011;914;48.118;11.600;2023-05-08T01:13:46;9.77;;;8.00;;
1829;SDS011;914;48.118;11.600;2023-05-08T01:16:37;9.45;;;7.97;;
1829;SDS011;914;48.118;11.600;2023-05-08T01:21:59;10.47;;;8.40;;
1829;SDS011;914;48.118;11.600;2023-05-08T01:25:05;9.70;;;8.70;;
1829;SDS011;914;48.118;11.600;2023-05-08T01:27:54;9.97;;;8.97;;
1829;SDS011;914;48.118;11.600;2023-05-08T01:30:57;12.27;;;9.07;;
1829;SDS011;914;48.118;11.600;2023-05-08T01:33:31;10.13;;;9.10;;
1829;SDS011;914;48.118;11.600;2023-05-08T01:36:16;10.57;;;9.53;;
1829;SDS011;914;48.118;11.600;2023-05-08T01:41:13;11.80;;;10.00;;
1829;SDS011;914;48.118;11.600;2023-05-08T01:43:49;15.27;;;9.40;;
1829;SDS011;914;48.118;11.600;2023-05-08T01:46:29;10.33;;;9.33;;
1829;SDS011;914;48.118;11.600;2023-05-08T01:48:58;11.03;;;9.30;;
1829;SDS011;914;48.118;11.600;2023-05-08T01:51:33;11.57;;;9.30;;
1829;SDS011;914;48.118;11.600;2023-05-08T01:54:05;11.17;;;10.00;;
1829;SDS011;914;48.118;11.600;2023-05-08T01:56:33;9.83;;;8.93;;
1829;SDS011;914;48.118;11.600;2023-05-08T01:59:02;11.47;;;10.00;;
1829;SDS011;914;48.118;11.600;2023-05-08T02:01:30;10.67;;;9.10;;
1829;SDS011;914;48.118;11.600;2023-05-08T02:03:58;10.87;;;9.37;;
1829;SDS011;914;48.118;11.600;2023-05-08T02:06:24;10.63;;;9.53;;
1829;SDS011;914;48.118;11.600;2023-05-08T02:08:52;10.70;;;9.20;;
1829;SDS011;914;48.118;11.600;2023-05-08T02:11:20;10.77;;;9.67;;
1829;SDS011;914;48.118;11.600;2023-05-08T02:13:48;11.87;;;9.80;;
1829;SDS011;914;48.118;11.600;2023-05-08T02:16:15;10.60;;;9.37;;
1829;SDS011;914;48.118;11.600;2023-05-08T02:18:43;13.47;;;10.17;;
1829;SDS011;914;48.118;11.600;2023-05-08T02:21:13;10.07;;;9.07;;
1829;SDS011;914;48.118;11.600;2023-05-08T02:23:40;10.70;;;9.60;;
1829;SDS011;914;48.118;11.600;2023-05-08T02:26:07;10.33;;;9.27;;
1829;SDS011;914;48.118;11.600;2023-05-08T02:28:34;10.07;;;8.80;;
1829;SDS011;914;48.118;11.600;2023-05-08T02:31:00;9.63;;;8.73;;
1829;SDS011;914;48.118;11.600;2023-05-08T02:33:27;9.53;;;8.53;;
1829;SDS011;914;48.118;11.600;2023-05-08T02:35:54;10.43;;;9.43;;
1829;SDS011;914;48.118;11.600;2023-05-08T02:38:21;10.33;;;9.23;;
1829;SDS011;914;48.118;11.600;2023-05-08T02:40:52;9.63;;;8.73;;
1829;SDS011;914;48.118;11.600;2023-05-08T02:43:21;9.63;;;8.73;;
1829;SDS011;914;48.118;11.600;2023-05-08T02:45:48;10.50;;;9.50;;
1829;SDS011;914;48.118;11.600;2023-05-08T02:48:33;9.77;;;8.73;;
1829;SDS011;914;48.118;11.600;2023-05-08T02:53:53;9.77;;;8.87;;
1829;SDS011;914;48.118;11.600;2023-05-08T02:56:30;8.70;;;7.87;;
1829;SDS011;914;48.118;11.600;2023-05-08T02:59:08;9.07;;;8.17;;
1829;SDS011;914;48.118;11.600;2023-05-08T03:02:00;9.10;;;8.20;;
1829;SDS011;914;48.118;11.600;2023-05-08T03:04:29;9.40;;;8.07;;
1829;SDS011;914;48.118;11.600;2023-05-08T03:06:58;10.93;;;9.00;;
1829;SDS011;914;48.118;11.600;2023-05-08T03:09:26;10.33;;;8.73;;
1829;SDS011;914;48.118;11.600;2023-05-08T03:11:58;9.17;;;8.30;;
1829;SDS011;914;48.118;11.600;2023-05-08T03:14:27;11.43;;;8.67;;
1829;SDS011;914;48.118;11.600;2023-05-08T03:16:56;9.60;;;7.93;;
1829;SDS011;914;48.118;11.600;2023-05-08T03:19:35;9.77;;;8.77;;
1829;SDS011;914;48.118;11.600;2023-05-08T03:22:02;8.57;;;7.77;;
1829;SDS011;914;48.118;11.600;2023-05-08T03:24:30;8.77;;;7.97;;
1829;SDS011;914;48.118;11.600;2023-05-08T03:27:01;9.63;;;8.73;;
1829;SDS011;914;48.118;11.600;2023-05-08T03:29:28;10.70;;;8.80;;
1829;SDS011;914;48.118;11.600;2023-05-08T03:31:56;10.13;;;8.67;;
1829;SDS011;914;48.118;11.600;2023-05-08T03:34:24;9.37;;;8.37;;
1829;SDS011;914;48.118;11.600;2023-05-08T03:36:51;9.53;;;8.53;;
1829;SDS011;914;48.118;11.600;2023-05-08T03:39:16;10.33;;;8.50;;
1829;SDS011;914;48.118;11.600;2023-05-08T03:41:42;8.57;;;7.77;;
1829;SDS011;914;48.118;11.600;2023-05-08T03:44:09;12.03;;;9.03;;
1829;SDS011;914;48.118;11.600;2023-05-08T03:46:36;8.90;;;8.03;;
1829;SDS011;914;48.118;11.600;2023-05-08T03:49:03;8.43;;;7.63;;
1829;SDS011;914;48.118;11.600;2023-05-08T03:51:30;8.90;;;7.97;;
1829;SDS011;914;48.118;11.600;2023-05-08T03:53:56;9.97;;;7.73;;
1829;SDS011;914;48.118;11.600;2023-05-08T03:56:21;8.53;;;7.60;;
1829;SDS011;914;48.118;11.600;2023-05-08T04:01:24;8.67;;;7.57;;
1829;SDS011;914;48.118;11.600;2023-05-08T04:14:47;8.70;;;7.80;;
1829;SDS011;914;48.118;11.600;2023-05-08T04:17:22;8.50;;;7.70;;
1829;SDS011;914;48.118;11.600;2023-05-08T04:19:57;8.57;;;7.67;;
1829;SDS011;914;48.118;11.600;2023-05-08T04:22:26;8.10;;;7.30;;
1829;SDS011;914;48.118;11.600;2023-05-08T04:24:56;9.60;;;8.70;;
1829;SDS011;914;48.118;11.600;2023-05-08T04:27:24;8.40;;;7.60;;
1829;SDS011;914;48.118;11.600;2023-05-08T04:29:51;9.63;;;8.67;;
1829;SDS011;914;48.118;11.600;2023-05-08T04:32:18;12.67;;;8.30;;
1829;SDS011;914;48.118;11.600;2023-05-08T04:34:44;8.80;;;7.90;;
1829;SDS011;914;48.118;11.600;2023-05-08T04:37:20;8.67;;;7.80;;
1829;SDS011;914;48.118;11.600;2023-05-08T04:39:50;8.93;;;8.13;;
1829;SDS011;914;48.118;11.600;2023-05-08T04:42:16;18.67;;;8.37;;
1829;SDS011;914;48.118;11.600;2023-05-08T04:44:42;10.60;;;9.00;;
1829;SDS011;914;48.118;11.600;2023-05-08T04:47:08;11.67;;;8.20;;
1829;SDS011;914;48.118;11.600;2023-05-08T04:49:33;10.63;;;8.70;;
1829;SDS011;914;48.118;11.600;2023-05-08T04:51:59;10.97;;;8.70;;
1829;SDS011;914;48.118;11.600;2023-05-08T04:54:25;9.47;;;8.13;;
1829;SDS011;914;48.118;11.600;2023-05-08T04:56:51;10.23;;;9.23;;
1829;SDS011;914;48.118;11.600;2023-05-08T04:59:17;9.30;;;8.40;;
1829;SDS011;914;48.118;11.600;2023-05-08T05:01:44;11.50;;;9.67;;
1829;SDS011;914;48.118;11.600;2023-05-08T05:04:10;9.70;;;8.80;;
1829;SDS011;914;48.118;11.600;2023-05-08T05:06:36;9.27;;;8.40;;
1829;SDS011;914;48.118;11.600;2023-05-08T05:09:02;10.13;;;8.97;;
1829;SDS011;914;48.118;11.600;2023-05-08T05:11:28;9.80;;;8.80;;
1829;SDS011;914;48.118;11.600;2023-05-08T05:13:54;9.87;;;8.57;;
1829;SDS011;914;48.118;11.600;2023-05-08T05:16:20;11.93;;;8.57;;
1829;SDS011;914;48.118;11.600;2023-05-08T05:18:45;9.47;;;8.50;;
1829;SDS011;914;48.118;11.600;2023-05-08T05:21:11;13.20;;;8.70;;
1829;SDS011;914;48.118;11.600;2023-05-08T05:23:37;10.27;;;8.90;;
1829;SDS011;914;48.118;11.600;2023-05-08T05:26:03;24.43;;;9.20;;
1829;SDS011;914;48.118;11.600;2023-05-08T05:28:29;11.07;;;8.50;;
1829;SDS011;914;48.118;11.600;2023-05-08T05:30:54;11.37;;;8.97;;
1829;SDS011;914;48.118;11.600;2023-05-08T05:33:21;9.40;;;8.50;;
1829;SDS011;914;48.118;11.600;2023-05-08T05:35:46;9.20;;;8.30;;
1829;SDS011;914;48.118;11.600;2023-05-08T05:38:12;10.23;;;9.23;;
1829;SDS011;914;48.118;11.600;2023-05-08T05:40:37;10.60;;;8.70;;
1829;SDS011;914;48.118;11.600;2023-05-08T05:43:03;9.83;;;8.83;;
1829;SDS011;914;48.118;11.600;2023-05-08T05:45:29;10.37;;;8.57;;
1829;SDS011;914;48.118;11.600;2023-05-08T05:47:55;10.13;;;8.83;;
1829;SDS011;914;48.118;11.600;2023-05-08T05:50:21;9.30;;;8.40;;
1829;SDS011;914;48.118;11.600;2023-05-08T05:52:47;9.40;;;8.50;;
1829;SDS011;914;48.118;11.600;2023-05-08T05:55:12;9.57;;;8.53;;
1829;SDS011;914;48.118;11.600;2023-05-08T05:57:38;9.20;;;8.30;;
1829;SDS011;914;48.118;11.600;2023-05-08T06:00:04;8.47;;;7.70;;
1829;SDS011;914;48.118;11.600;2023-05-08T06:02:31;8.27;;;7.47;;
1829;SDS011;914;48.118;11.600;2023-05-08T06:04:58;8.97;;;7.63;;
1829;SDS011;914;48.118;11.600;2023-05-08T06:07:24;9.13;;;8.07;;
1829;SDS011;914;48.118;11.600;2023-05-08T06:09:50;8.70;;;7.63;;
1829;SDS011;914;48.118;11.600;2023-05-08T06:12:17;10.50;;;8.13;;
1829;SDS011;914;48.118;11.600;2023-05-08T06:14:43;7.80;;;7.10;;
1829;SDS011;914;48.118;11.600;2023-05-08T06:17:09;8.03;;;7.33;;
1829;SDS011;914;48.118;11.600;2023-05-08T06:19:34;8.87;;;7.97;;
1829;SDS011;914;48.118;11.600;2023-05-08T06:22:01;8.30;;;7.53;;
1829;SDS011;914;48.118;11.600;2023-05-08T06:24:27;9.83;;;8.07;;
1829;SDS011;914;48.118;11.600;2023-05-08T06:26:52;8.37;;;7.60;;
1829;SDS011;914;48.118;11.600;2023-05-08T06:29:18;9.43;;;7.57;;
1829;SDS011;914;48.118;11.600;2023-05-08T06:31:44;10.13;;;8.63;;
1829;SDS011;914;48.118;11.600;2023-05-08T06:34:10;8.63;;;7.83;;
1829;SDS011;914;48.118;11.600;2023-05-08T06:36:35;11.93;;;8.10;;
1829;SDS011;914;48.118;11.600;2023-05-08T06:39:04;11.73;;;7.67;;
1829;SDS011;914;48.118;11.600;2023-05-08T06:41:30;8.83;;;7.93;;
1829;SDS011;914;48.118;11.600;2023-05-08T06:43:56;9.30;;;7.77;;
1829;SDS011;914;48.118;11.600;2023-05-08T06:46:21;11.83;;;8.37;;
1829;SDS011;914;48.118;11.600;2023-05-08T06:48:47;8.43;;;7.53;;
1829;SDS011;914;48.118;11.600;2023-05-08T06:51:13;10.07;;;7.47;;
1829;SDS011;914;48.118;11.600;2023-05-08T06:53:38;10.27;;;7.67;;
1829;SDS011;914;48.118;11.600;2023-05-08T06:56:04;10.23;;;7.30;;
1829;SDS011;914;48.118;11.600;2023-05-08T06:58:30;8.93;;;7.90;;
1829;SDS011;914;48.118;11.600;2023-05-08T07:00:59;11.33;;;7.47;;
1829;SDS011;914;48.118;11.600;2023-05-08T07:03:28;8.33;;;7.53;;
1829;SDS011;914;48.118;11.600;2023-05-08T07:05:54;9.10;;;7.70;;
1829;SDS011;914;48.118;11.600;2023-05-08T07:08:19;8.63;;;7.80;;
1829;SDS011;914;48.118;11.600;2023-05-08T07:10:45;9.30;;;7.53;;
1829;SDS011;914;48.118;11.600;2023-05-08T07:13:11;8.27;;;7.40;;
1829;SDS011;914;48.118;11.600;2023-05-08T07:15:36;8.13;;;7.43;;
1829;SDS011;914;48.118;11.600;2023-05-08T07:18:03;10.07;;;7.73;;
1829;SDS011;914;48.118;11.600;2023-05-08T07:20:28;9.77;;;7.77;;
1829;SDS011;914;48.118;11.600;2023-05-08T07:22:54;12.10;;;7.40;;
1829;SDS011;914;48.118;11.600;2023-05-08T07:25:20;8.50;;;7.47;;
1829;SDS011;914;48.118;11.600;2023-05-08T07:27:47;8.60;;;7.60;;
1829;SDS011;914;48.118;11.600;2023-05-08T07:30:12;12.27;;;7.30;;
1829;SDS011;914;48.118;11.600;2023-05-08T07:32:38;8.83;;;7.93;;
1829;SDS011;914;48.118;11.600;2023-05-08T07:35:04;8.03;;;7.23;;
1829;SDS011;914;48.118;11.600;2023-05-08T07:37:32;7.57;;;6.87;;
1829;SDS011;914;48.118;11.600;2023-05-08T07:39:58;9.87;;;7.20;;
1829;SDS011;914;48.118;11.600;2023-05-08T07:42:23;9.93;;;7.60;;
1829;SDS011;914;48.118;11.600;2023-05-08T07:44:49;8.40;;;7.40;;
1829;SDS011;914;48.118;11.600;2023-05-08T07:47:15;11.70;;;7.30;;
1829;SDS011;914;48.118;11.600;2023-05-08T07:49:41;9.37;;;7.57;;
1829;SDS011;914;48.118;11.600;2023-05-08T07:52:06;8.27;;;7.07;;
1829;SDS011;914;48.118;11.600;2023-05-08T07:54:32;7.63;;;6.90;;
1829;SDS011;914;48.118;11.600;2023-05-08T07:56:58;7.87;;;7.07;;
1829;SDS011;914;48.118;11.600;2023-05-08T07:59:23;8.03;;;6.77;;
1829;SDS011;914;48.118;11.600;2023-05-08T08:01:49;9.30;;;6.80;;
1829;SDS011;914;48.118;11.600;2023-05-08T08:04:15;7.40;;;6.73;;
1829;SDS011;914;48.118;11.600;2023-05-08T08:06:40;7.60;;;6.80;;
1829;SDS011;914;48.118;11.600;2023-05-08T08:09:06;7.67;;;6.83;;
1829;SDS011;914;48.118;11.600;2023-05-08T08:11:32;7.97;;;7.27;;
1829;SDS011;914;48.118;11.600;2023-05-08T08:13:58;7.70;;;6.87;;
1829;SDS011;914;48.118;11.600;2023-05-08T08:16:23;8.43;;;7.10;;
1829;SDS011;914;48.118;11.600;2023-05-08T08:18:49;7.87;;;7.17;;
1829;SDS011;914;48.118;11.600;2023-05-08T08:21:17;9.23;;;8.17;;
1829;SDS011;914;48.118;11.600;2023-05-08T08:23:43;9.43;;;7.37;;
1829;SDS011;914;48.118;11.600;2023-05-08T08:26:09;8.03;;;7.33;;
1829;SDS011;914;48.118;11.600;2023-05-08T08:28:34;11.33;;;7.20;;
1829;SDS011;914;48.118;11.600;2023-05-08T08:31:00;7.37;;;6.67;;
1829;SDS011;914;48.118;11.600;2023-05-08T08:33:26;9.40;;;7.50;;
1829;SDS011;914;48.118;11.600;2023-05-08T08:35:53;7.43;;;6.73;;
1829;SDS011;914;48.118;11.600;2023-05-08T08:38:19;9.50;;;6.57;;
1829;SDS011;914;48.118;11.600;2023-05-08T08:40:44;7.87;;;7.07;;
1829;SDS011;914;48.118;11.600;2023-05-08T08:43:10;7.83;;;7.03;;
1829;SDS011;914;48.118;11.600;2023-05-08T08:45:36;8.87;;;7.17;;
1829;SDS011;914;48.118;11.600;2023-05-08T08:48:02;11.83;;;7.80;;
1829;SDS011;914;48.118;11.600;2023-05-08T08:50:32;8.87;;;7.47;;
1829;SDS011;914;48.118;11.600;2023-05-08T08:53:00;13.80;;;7.70;;
1829;SDS011;914;48.118;11.600;2023-05-08T08:55:44;12.83;;;7.43;;
1829;SDS011;914;48.118;11.600;2023-05-08T08:58:17;8.53;;;7.63;;
1829;SDS011;914;48.118;11.600;2023-05-08T09:01:07;9.10;;;7.70;;
1829;SDS011;914;48.118;11.600;2023-05-08T09:03:39;10.83;;;8.40;;
1829;SDS011;914;48.118;11.600;2023-05-08T09:06:05;15.57;;;7.77;;
1829;SDS011;914;48.118;11.600;2023-05-08T09:08:31;8.43;;;7.37;;
1829;SDS011;914;48.118;11.600;2023-05-08T09:10:58;10.25;;;8.50;;
1829;SDS011;914;48.118;11.600;2023-05-08T09:13:27;11.10;;;8.33;;
1829;SDS011;914;48.118;11.600;2023-05-08T09:15:56;8.82;;;7.93;;
1829;SDS011;914;48.118;11.600;2023-05-08T09:18:22;8.88;;;8.00;;
1829;SDS011;914;48.118;11.600;2023-05-08T09:20:48;9.48;;;7.95;;
1829;SDS011;914;48.118;11.600;2023-05-08T09:23:15;9.55;;;7.85;;
1829;SDS011;914;48.118;11.600;2023-05-08T09:25:47;10.40;;;8.70;;
1829;SDS011;914;48.118;11.600;2023-05-08T09:28:24;9.57;;;8.60;;
1829;SDS011;914;48.118;11.600;2023-05-08T09:30:51;9.63;;;8.68;;
1829;SDS011;914;48.118;11.600;2023-05-08T09:33:18;10.73;;;9.50;;
1829;SDS011;914;48.118;11.600;2023-05-08T09:35:46;9.27;;;8.38;;
1829;SDS011;914;48.118;11.600;2023-05-08T09:41:05;9.45;;;8.60;;
1829;SDS011;914;48.118;11.600;2023-05-08T09:43:34;9.48;;;8.57;;
1829;SDS011;914;48.118;11.600;2023-05-08T09:46:18;9.48;;;8.57;;
1829;SDS011;914;48.118;11.600;2023-05-08T09:48:52;9.75;;;8.85;;
1829;SDS011;914;48.118;11.600;2023-05-08T09:51:19;10.63;;;9.55;;
1829;SDS011;914;48.118;11.600;2023-05-08T09:53:45;11.60;;;9.82;;
1829;SDS011;914;48.118;11.600;2023-05-08T09:56:13;13.93;;;9.75;;
1829;SDS011;914;48.118;11.600;2023-05-08T09:58:43;11.02;;;9.93;;
1829;SDS011;914;48.118;11.600;2023-05-08T10:01:28;11.35;;;10.20;;
1829;SDS011;914;48.118;11.600;2023-05-08T10:03:58;10.60;;;9.50;;
1829;SDS011;914;48.118;11.600;2023-05-08T10:06:25;12.27;;;9.43;;
1829;SDS011;914;48.118;11.600;2023-05-08T10:11:51;10.07;;;9.05;;
1829;SDS011;914;48.118;11.600;2023-05-08T10:14:21;14.45;;;10.15;;
1829;SDS011;914;48.118;11.600;2023-05-08T10:16:48;11.52;;;9.82;;
1829;SDS011;914;48.118;11.600;2023-05-08T10:19:20;11.85;;;10.63;;
1829;SDS011;914;48.118;11.600;2023-05-08T10:21:49;12.38;;;10.80;;
1829;SDS011;914;48.118;11.600;2023-05-08T10:24:19;13.23;;;9.85;;
1829;SDS011;914;48.118;11.600;2023-05-08T10:26:56;11.13;;;10.13;;
1829;SDS011;914;48.118;11.600;2023-05-08T10:29:46;12.13;;;10.70;;
1829;SDS011;914;48.118;11.600;2023-05-08T10:32:20;12.65;;;11.40;;
1829;SDS011;914;48.118;11.600;2023-05-08T10:34:59;12.63;;;11.18;;
1829;SDS011;914;48.118;11.600;2023-05-08T10:37:28;12.38;;;10.35;;
1829;SDS011;914;48.118;11.600;2023-05-08T10:39:56;13.07;;;10.27;;
1829;SDS011;914;48.118;11.600;2023-05-08T10:42:22;12.35;;;10.30;;
1829;SDS011;914;48.118;11.600;2023-05-08T10:44:47;13.07;;;11.82;;
1829;SDS011;914;48.118;11.600;2023-05-08T10:55:45;12.95;;;11.75;;
1829;SDS011;914;48.118;11.600;2023-05-08T10:58:14;15.63;;;12.52;;
1829;SDS011;914;48.118;11.600;2023-05-08T11:03:25;12.93;;;11.73;;
1829;SDS011;914;48.118;11.600;2023-05-08T11:05:52;13.27;;;12.07;;
1829;SDS011;914;48.118;11.600;2023-05-08T11:08:20;20.35;;;12.10;;
1829;SDS011;914;48.118;11.600;2023-05-08T11:13:27;14.05;;;12.75;;
1829;SDS011;914;48.118;11.600;2023-05-08T11:15:56;13.98;;;11.57;;
1829;SDS011;914;48.118;11.600;2023-05-08T11:18:21;14.63;;;13.10;;
1829;SDS011;914;48.118;11.600;2023-05-08T11:21:04;77.80;;;16.48;;
1829;SDS011;914;48.118;11.600;2023-05-08T11:23:38;15.32;;;12.50;;
1829;SDS011;914;48.118;11.600;2023-05-08T11:26:05;16.05;;;13.45;;
1829;SDS011;914;48.118;11.600;2023-05-08T11:28:37;19.25;;;12.90;;
1829;SDS011;914;48.118;11.600;2023-05-08T11:31:04;17.33;;;13.20;;
1829;SDS011;914;48.118;11.600;2023-05-08T11:33:33;14.43;;;12.95;;
1829;SDS011;914;48.118;11.600;2023-05-08T11:38:32;18.08;;;13.85;;
1829;SDS011;914;48.118;11.600;2023-05-08T11:41:06;16.33;;;12.68;;
1829;SDS011;914;48.118;11.600;2023-05-08T11:46:02;15.00;;;13.60;;
1829;SDS011;914;48.118;11.600;2023-05-08T11:48:38;14.45;;;12.98;;
1829;SDS011;914;48.118;11.600;2023-05-08T11:51:04;13.82;;;12.32;;
1829;SDS011;914;48.118;11.600;2023-05-08T11:53:31;14.05;;;12.55;;
1829;SDS011;914;48.118;11.600;2023-05-08T11:55:57;13.43;;;12.05;;
1829;SDS011;914;48.118;11.600;2023-05-08T11:58:24;12.38;;;11.18;;
1829;SDS011;914;48.118;11.600;2023-05-08T12:00:49;13.57;;;12.20;;
1829;SDS011;914;48.118;11.600;2023-05-08T12:03:19;13.77;;;12.48;;
1829;SDS011;914;48.118;11.600;2023-05-08T12:05:47;13.50;;;12.20;;
1829;SDS011;914;48.118;11.600;2023-05-08T12:08:14;15.50;;;13.82;;
1829;SDS011;914;48.118;11.600;2023-05-08T12:10:48;14.25;;;12.82;;
1829;SDS011;914;48.118;11.600;2023-05-08T12:15:51;14.15;;;12.82;;
1829;SDS011;914;48.118;11.600;2023-05-08T12:18:24;14.32;;;12.20;;
1829;SDS011;914;48.118;11.600;2023-05-08T12:20:55;14.07;;;12.60;;
1829;SDS011;914;48.118;11.600;2023-05-08T12:23:23;14.20;;;11.43;;
1829;SDS011;914;48.118;11.600;2023-05-08T12:25:53;12.98;;;11.82;;
1829;SDS011;914;48.118;11.600;2023-05-08T12:28:19;13.85;;;12.65;;
1829;SDS011;914;48.118;11.600;2023-05-08T12:30:45;12.82;;;11.63;;
1829;SDS011;914;48.118;11.600;2023-05-08T12:33:11;13.98;;;11.60;;
1829;SDS011;914;48.118;11.600;2023-05-08T12:35:38;12.63;;;10.98;;
1829;SDS011;914;48.118;11.600;2023-05-08T12:38:05;14.35;;;12.48;;
1829;SDS011;914;48.118;11.600;2023-05-08T12:40:33;13.82;;;12.45;;
1829;SDS011;914;48.118;11.600;2023-05-08T12:43:00;15.23;;;12.98;;
1829;SDS011;914;48.118;11.600;2023-05-08T12:45:28;13.38;;;12.07;;
1829;SDS011;914;48.118;11.600;2023-05-08T12:48:04;13.60;;;11.68;;
1829;SDS011;914;48.118;11.600;2023-05-08T12:50:37;16.27;;;13.23;;
1829;SDS011;914;48.118;11.600;2023-05-08T12:53:06;14.73;;;12.52;;
1829;SDS011;914;48.118;11.600;2023-05-08T12:55:36;15.75;;;12.95;;
1829;SDS011;914;48.118;11.600;2023-05-08T12:58:07;16.08;;;14.50;;
1829;SDS011;914;48.118;11.600;2023-05-08T13:00:37;18.80;;;14.02;;
1829;SDS011;914;48.118;11.600;2023-05-08T13:03:05;15.43;;;13.82;;
1829;SDS011;914;48.118;11.600;2023-05-08T13:05:36;16.52;;;14.68;;
1829;SDS011;914;48.118;11.600;2023-05-08T13:08:06;18.48;;;14.82;;
1829;SDS011;914;48.118;11.600;2023-05-08T13:13:17;16.10;;;13.20;;
1829;SDS011;914;48.118;11.600;2023-05-08T13:15:44;19.15;;;13.93;;
1829;SDS011;914;48.118;11.600;2023-05-08T13:18:10;18.42;;;14.13;;
1829;SDS011;914;48.118;11.600;2023-05-08T13:20:36;14.38;;;12.98;;
1829;SDS011;914;48.118;11.600;2023-05-08T13:23:03;15.35;;;13.75;;
1829;SDS011;914;48.118;11.600;2023-05-08T13:25:29;26.00;;;13.77;;
1829;SDS011;914;48.118;11.600;2023-05-08T13:27:56;16.55;;;14.57;;
1829;SDS011;914;48.118;11.600;2023-05-08T13:30:22;17.58;;;13.45;;
1829;SDS011;914;48.118;11.600;2023-05-08T13:32:48;15.40;;;14.00;;
1829;SDS011;914;48.118;11.600;2023-05-08T13:35:15;15.07;;;13.43;;
1829;SDS011;914;48.118;11.600;2023-05-08T13:37:42;14.63;;;13.13;;
1829;SDS011;914;48.118;11.600;2023-05-08T13:40:08;15.27;;;13.50;;
1829;SDS011;914;48.118;11.600;2023-05-08T13:42:34;14.45;;;13.15;;
1829;SDS011;914;48.118;11.600;2023-05-08T13:44:59;14.52;;;13.20;;
1829;SDS011;914;48.118;11.600;2023-05-08T13:47:25;13.68;;;12.20;;
1829;SDS011;914;48.118;11.600;2023-05-08T13:49:51;13.63;;;12.23;;
1829;SDS011;914;48.118;11.600;2023-05-08T13:52:17;13.57;;;12.38;;
1829;SDS011;914;48.118;11.600;2023-05-08T13:54:43;13.50;;;12.25;;
1829;SDS011;914;48.118;11.600;2023-05-08T13:57:09;13.82;;;12.43;;
1829;SDS011;914;48.118;11.600;2023-05-08T13:59:35;14.00;;;12.60;;
1829;SDS011;914;48.118;11.600;2023-05-08T14:02:01;13.68;;;12.18;;
1829;SDS011;914;48.118;11.600;2023-05-08T14:04:26;13.30;;;12.07;;
1829;SDS011;914;48.118;11.600;2023-05-08T14:06:52;13.82;;;11.90;;
1829;SDS011;914;48.118;11.600;2023-05-08T14:09:17;12.63;;;11.35;;
1829;SDS011;914;48.118;11.600;2023-05-08T14:11:43;11.65;;;10.63;;
1829;SDS011;914;48.118;11.600;2023-05-08T14:14:08;14.15;;;11.15;;
1829;SDS011;914;48.118;11.600;2023-05-08T14:16:34;13.18;;;11.85;;
1829;SDS011;914;48.118;11.600;2023-05-08T14:18:59;12.50;;;10.57;;
1829;SDS011;914;48.118;11.600;2023-05-08T14:21:25;13.30;;;10.93;;
1829;SDS011;914;48.118;11.600;2023-05-08T14:23:51;12.00;;;10.40;;
1829;SDS011;914;48.118;11.600;2023-05-08T14:26:17;11.65;;;10.40;;
1829;SDS011;914;48.118;11.600;2023-05-08T14:28:43;10.65;;;9.55;;
1829;SDS011;914;48.118;11.600;2023-05-08T14:31:09;10.15;;;9.07;;
1829;SDS011;914;48.118;11.600;2023-05-08T14:33:34;14.80;;;9.80;;
1829;SDS011;914;48.118;11.600;2023-05-08T14:36:00;9.87;;;8.50;;
1829;SDS011;914;48.118;11.600;2023-05-08T14:38:26;10.02;;;8.80;;
1829;SDS011;914;48.118;11.600;2023-05-08T14:40:51;9.52;;;8.70;;
1829;SDS011;914;48.118;11.600;2023-05-08T14:43:20;9.10;;;8.20;;
1829;SDS011;914;48.118;11.600;2023-05-08T14:45:46;11.48;;;7.20;;
1829;SDS011;914;48.118;11.600;2023-05-08T14:48:11;9.60;;;7.20;;
1829;SDS011;914;48.118;11.600;2023-05-08T14:50:37;8.30;;;7.50;;
1829;SDS011;914;48.118;11.600;2023-05-08T14:53:03;8.20;;;7.40;;
1829;SDS011;914;48.118;11.600;2023-05-08T14:55:28;13.13;;;7.70;;
1829;SDS011;914;48.118;11.600;2023-05-08T14:57:54;8.60;;;7.30;;
1829;SDS011;914;48.118;11.600;2023-05-08T15:00:20;10.45;;;7.90;;
1829;SDS011;914;48.118;11.600;2023-05-08T15:02:46;8.82;;;7.95;;
1829;SDS011;914;48.118;11.600;2023-05-08T15:05:11;9.52;;;8.63;;
1829;SDS011;914;48.118;11.600;2023-05-08T15:07:37;10.85;;;9.23;;
1829;SDS011;914;48.118;11.600;2023-05-08T15:10:03;9.73;;;8.73;;
1829;SDS011;914;48.118;11.600;2023-05-08T15:12:30;9.57;;;8.68;;
1829;SDS011;914;48.118;11.600;2023-05-08T15:14:56;9.32;;;7.95;;
1829;SDS011;914;48.118;11.600;2023-05-08T15:17:22;9.15;;;8.00;;
1829;SDS011;914;48.118;11.600;2023-05-08T15:19:48;11.73;;;8.32;;
1829;SDS011;914;48.118;11.600;2023-05-08T15:22:14;11.90;;;8.45;;
1829;SDS011;914;48.118;11.600;2023-05-08T15:24:40;9.82;;;8.90;;
1829;SDS011;914;48.118;11.600;2023-05-08T15:27:05;10.00;;;8.70;;
1829;SDS011;914;48.118;11.600;2023-05-08T15:29:31;9.33;;;8.40;;
1829;SDS011;914;48.118;11.600;2023-05-08T15:31:57;10.00;;;8.90;;
1829;SDS011;914;48.118;11.600;2023-05-08T15:34:22;9.67;;;8.77;;
1829;SDS011;914;48.118;11.600;2023-05-08T15:36:48;9.57;;;8.55;;
1829;SDS011;914;48.118;11.600;2023-05-08T15:39:14;12.03;;;9.30;;
1829;SDS011;914;48.118;11.600;2023-05-08T15:41:39;11.20;;;9.38;;
1829;SDS011;914;48.118;11.600;2023-05-08T15:44:05;10.40;;;9.40;;
1829;SDS011;914;48.118;11.600;2023-05-08T15:46:31;10.90;;;9.27;;
1829;SDS011;914;48.118;11.600;2023-05-08T15:48:57;10.82;;;9.32;;
1829;SDS011;914;48.118;11.600;2023-05-08T15:51:23;11.52;;;9.80;;
1829;SDS011;914;48.118;11.600;2023-05-08T15:53:49;11.13;;;9.97;;
1829;SDS011;914;48.118;11.600;2023-05-08T15:56:16;11.80;;;10.10;;
1829;SDS011;914;48.118;11.600;2023-05-08T15:58:45;9.37;;;8.47;;
1829;SDS011;914;48.118;11.600;2023-05-08T16:01:11;8.55;;;7.75;;
1829;SDS011;914;48.118;11.600;2023-05-08T16:03:36;8.88;;;7.93;;